sensor_id;sensor_type;location;lat;lon;timestamp;P1;durP1;ratioP1;P2;durP2;ratioP2
44000;SDS011;29660;42.892;24.710;2023-08-17T04:13:39;18.40;;;16.50;;
44000;SDS011;29660;42.892;24.710;2023-08-17T04:19:01;16.42;;;14.65;;
44000;SDS011;29660;42.892;24.710;2023-08-17T04:24:24;13.98;;;12.05;;
44000;SDS011;29660;42.892;24.710;2023-08-17T04:29:46;16.35;;;11.48;;
44000;SDS011;29660;42.892;24.710;2023-08-17T04:35:08;15.95;;;10.27;;
44000;SDS011;29660;42.892;24.710;2023-08-17T04:40:32;17.00;;;10.77;;
44000;SDS011;29660;42.892;24.710;2023-08-17T04:45:55;12.93;;;10.93;;
44000;SDS011;29660;42.892;24.710;2023-08-17T04:51:19;13.38;;;10.30;;
44000;SDS011;29660;42.892;24.710;2023-08-17T04:56:41;12.52;;;10.27;;
44000;SDS011;29660;42.892;24.710;2023-08-17T05:02:05;14.98;;;10.00;;
44000;SDS011;29660;42.892;24.710;2023-08-17T05:07:27;12.50;;;10.57;;
44000;SDS011;29660;42.892;24.710;2023-08-17T05:12:49;14.63;;;8.70;;
44000;SDS011;29660;42.892;24.710;2023-08-17T05:18:12;15.20;;;9.27;;
44000;SDS011;29660;42.892;24.710;2023-08-17T05:23:34;13.10;;;8.25;;
44000;SDS011;29660;42.892;24.710;2023-08-17T05:28:57;12.20;;;8.70;;
44000;SDS011;29660;42.892;24.710;2023-08-17T05:34:20;14.18;;;8.40;;
44000;SDS011;29660;42.892;24.710;2023-08-17T05:39:42;9.90;;;7.47;;
44000;SDS011;29660;42.892;24.710;2023-08-17T05:45:04;12.18;;;8.65;;
44000;SDS011;29660;42.892;24.710;2023-08-17T05:50:27;12.57;;;8.45;;
44000;SDS011;29660;42.892;24.710;2023-08-17T05:55:49;16.98;;;7.88;;
44000;SDS011;29660;42.892;24.710;2023-08-17T06:01:11;7.97;;;6.88;;
44000;SDS011;29660;42.892;24.710;2023-08-17T06:06:34;10.85;;;6.90;;
44000;SDS011;29660;42.892;24.710;2023-08-17T06:11:56;7.40;;;6.28;;
44000;SDS011;29660;42.892;24.710;2023-08-17T06:17:18;6.70;;;6.00;;
44000;SDS011;29660;42.892;24.710;2023-08-17T06:22:40;10.95;;;6.22;;
44000;SDS011;29660;42.892;24.710;2023-08-17T06:28:02;9.10;;;5.68;;
44000;SDS011;29660;42.892;24.710;2023-08-17T06:33:25;10.82;;;6.18;;
44000;SDS011;29660;42.892;24.710;2023-08-17T06:38:47;9.70;;;7.45;;
44000;SDS011;29660;42.892;24.710;2023-08-17T06:44:10;12.25;;;6.78;;
44000;SDS011;29660;42.892;24.710;2023-08-17T06:49:32;10.15;;;6.38;;
44000;SDS011;29660;42.892;24.710;2023-08-17T06:54:54;11.82;;;6.30;;
44000;SDS011;29660;42.892;24.710;2023-08-17T07:00:16;8.13;;;6.82;;
44000;SDS011;29660;42.892;24.710;2023-08-17T07:05:42;7.47;;;6.63;;
44000;SDS011;29660;42.892;24.710;2023-08-17T07:11:04;11.63;;;6.97;;
44000;SDS011;29660;42.892;24.710;2023-08-17T07:16:27;14.43;;;8.10;;
44000;SDS011;29660;42.892;24.710;2023-08-17T07:21:50;9.65;;;6.70;;
44000;SDS011;29660;42.892;24.710;2023-08-17T07:27:12;12.70;;;5.80;;
44000;SDS011;29660;42.892;24.710;2023-08-17T07:32:34;17.67;;;5.57;;
44000;SDS011;29660;42.892;24.710;2023-08-17T07:37:56;7.43;;;5.22;;
44000;SDS011;29660;42.892;24.710;2023-08-17T07:43:29;9.65;;;4.65;;
44000;SDS011;29660;42.892;24.710;2023-08-17T07:48:51;10.77;;;5.28;;
44000;SDS011;29660;42.892;24.710;2023-08-17T07:54:13;7.22;;;4.45;;
44000;SDS011;29660;42.892;24.710;2023-08-17T07:59:35;6.40;;;4.57;;
44000;SDS011;29660;42.892;24.710;2023-08-17T08:04:57;10.25;;;4.80;;
44000;SDS011;29660;42.892;24.710;2023-08-17T08:10:20;8.05;;;4.65;;
44000;SDS011;29660;42.892;24.710;2023-08-17T08:15:42;6.05;;;4.90;;
44000;SDS011;29660;42.892;24.710;2023-08-17T08:21:04;9.77;;;4.60;;
44000;SDS011;29660;42.892;24.710;2023-08-17T08:26:26;8.27;;;4.43;;
44000;SDS011;29660;42.892;24.710;2023-08-17T08:31:48;7.55;;;4.30;;
44000;SDS011;29660;42.892;24.710;2023-08-17T08:37:11;8.38;;;4.38;;
44000;SDS011;29660;42.892;24.710;2023-08-17T08:42:33;4.90;;;4.00;;
44000;SDS011;29660;42.892;24.710;2023-08-17T08:47:55;9.88;;;4.20;;
44000;SDS011;29660;42.892;24.710;2023-08-17T08:53:20;10.73;;;4.30;;
44000;SDS011;29660;42.892;24.710;2023-08-17T08:58:49;6.30;;;3.75;;
44000;SDS011;29660;42.892;24.710;2023-08-17T09:04:15;4.75;;;3.53;;
44000;SDS011;29660;42.892;24.710;2023-08-17T09:09:37;7.72;;;3.83;;
44000;SDS011;29660;42.892;24.710;2023-08-17T09:15:00;5.57;;;2.90;;
44000;SDS011;29660;42.892;24.710;2023-08-17T09:20:38;4.45;;;2.83;;
44000;SDS011;29660;42.892;24.710;2023-08-17T09:26:08;6.13;;;3.00;;
44000;SDS011;29660;42.892;24.710;2023-08-17T09:31:31;7.70;;;2.85;;
44000;SDS011;29660;42.892;24.710;2023-08-17T09:36:54;5.45;;;3.15;;
44000;SDS011;29660;42.892;24.710;2023-08-17T09:42:16;7.47;;;2.90;;
44000;SDS011;29660;42.892;24.710;2023-08-17T09:47:42;6.70;;;3.20;;
44000;SDS011;29660;42.892;24.710;2023-08-17T09:53:04;3.50;;;2.90;;
44000;SDS011;29660;42.892;24.710;2023-08-17T09:58:26;5.63;;;3.15;;
44000;SDS011;29660;42.892;24.710;2023-08-17T10:03:52;7.20;;;2.97;;
44000;SDS011;29660;42.892;24.710;2023-08-17T10:09:18;9.73;;;2.95;;
44000;SDS011;29660;42.892;24.710;2023-08-17T10:14:49;5.18;;;3.00;;
44000;SDS011;29660;42.892;24.710;2023-08-17T10:20:17;6.82;;;2.83;;
44000;SDS011;29660;42.892;24.710;2023-08-17T10:25:41;7.55;;;3.15;;
44000;SDS011;29660;42.892;24.710;2023-08-17T10:31:04;8.15;;;3.00;;
44000;SDS011;29660;42.892;24.710;2023-08-17T10:36:32;5.75;;;3.05;;
44000;SDS011;29660;42.892;24.710;2023-08-17T10:41:56;6.60;;;3.10;;
44000;SDS011;29660;42.892;24.710;2023-08-17T10:47:29;9.05;;;3.13;;
44000;SDS011;29660;42.892;24.710;2023-08-17T10:52:57;6.20;;;2.92;;
44000;SDS011;29660;42.892;24.710;2023-08-17T10:58:19;7.30;;;3.67;;
44000;SDS011;29660;42.892;24.710;2023-08-17T11:03:41;5.70;;;2.80;;
44000;SDS011;29660;42.892;24.710;2023-08-17T11:09:07;6.55;;;2.80;;
44000;SDS011;29660;42.892;24.710;2023-08-17T11:14:33;9.55;;;3.10;;
44000;SDS011;29660;42.892;24.710;2023-08-17T11:19:56;6.35;;;3.03;;
44000;SDS011;29660;42.892;24.710;2023-08-17T11:25:18;7.78;;;2.83;;
44000;SDS011;29660;42.892;24.710;2023-08-17T11:30:40;5.28;;;2.47;;
44000;SDS011;29660;42.892;24.710;2023-08-17T11:36:08;5.35;;;2.78;;
44000;SDS011;29660;42.892;24.710;2023-08-17T11:41:32;8.82;;;3.08;;
44000;SDS011;29660;42.892;24.710;2023-08-17T11:46:54;7.35;;;3.10;;
44000;SDS011;29660;42.892;24.710;2023-08-17T11:52:16;6.65;;;2.83;;
44000;SDS011;29660;42.892;24.710;2023-08-17T11:57:38;6.50;;;2.90;;
44000;SDS011;29660;42.892;24.710;2023-08-17T12:03:01;5.57;;;3.00;;
44000;SDS011;29660;42.892;24.710;2023-08-17T12:08:24;4.60;;;2.63;;
44000;SDS011;29660;42.892;24.710;2023-08-17T12:13:49;5.88;;;2.80;;
44000;SDS011;29660;42.892;24.710;2023-08-17T12:19:13;5.13;;;2.70;;
44000;SDS011;29660;42.892;24.710;2023-08-17T12:24:35;7.00;;;3.10;;
44000;SDS011;29660;42.892;24.710;2023-08-17T12:29:58;5.60;;;3.08;;
44000;SDS011;29660;42.892;24.710;2023-08-17T12:35:20;4.63;;;3.28;;
44000;SDS011;29660;42.892;24.710;2023-08-17T12:40:45;9.20;;;3.10;;
44000;SDS011;29660;42.892;24.710;2023-08-17T12:46:07;4.70;;;3.00;;
44000;SDS011;29660;42.892;24.710;2023-08-17T12:51:29;8.43;;;2.90;;
44000;SDS011;29660;42.892;24.710;2023-08-17T12:56:51;4.75;;;3.40;;
44000;SDS011;29660;42.892;24.710;2023-08-17T13:02:19;4.68;;;2.88;;
44000;SDS011;29660;42.892;24.710;2023-08-17T13:07:42;5.45;;;2.90;;
44000;SDS011;29660;42.892;24.710;2023-08-17T13:13:04;10.68;;;6.15;;
44000;SDS011;29660;42.892;24.710;2023-08-17T13:18:28;5.25;;;3.00;;
44000;SDS011;29660;42.892;24.710;2023-08-17T13:23:51;4.50;;;2.95;;
44000;SDS011;29660;42.892;24.710;2023-08-17T13:29:13;3.42;;;2.90;;
44000;SDS011;29660;42.892;24.710;2023-08-17T13:34:35;6.72;;;3.22;;
44000;SDS011;29660;42.892;24.710;2023-08-17T13:39:57;5.60;;;2.75;;
44000;SDS011;29660;42.892;24.710;2023-08-17T13:45:20;7.60;;;2.85;;
44000;SDS011;29660;42.892;24.710;2023-08-17T13:50:42;4.00;;;3.00;;
44000;SDS011;29660;42.892;24.710;2023-08-17T13:56:05;8.93;;;3.25;;
44000;SDS011;29660;42.892;24.710;2023-08-17T14:01:27;9.15;;;3.00;;
44000;SDS011;29660;42.892;24.710;2023-08-17T14:06:49;5.97;;;2.83;;
44000;SDS011;29660;42.892;24.710;2023-08-17T14:12:13;4.93;;;2.88;;
44000;SDS011;29660;42.892;24.710;2023-08-17T14:17:35;3.95;;;2.88;;
44000;SDS011;29660;42.892;24.710;2023-08-17T14:22:57;4.88;;;3.00;;
44000;SDS011;29660;42.892;24.710;2023-08-17T14:28:19;4.15;;;3.00;;
44000;SDS011;29660;42.892;24.710;2023-08-17T14:33:42;4.50;;;2.80;;
44000;SDS011;29660;42.892;24.710;2023-08-17T14:39:04;5.43;;;3.10;;
44000;SDS011;29660;42.892;24.710;2023-08-17T14:44:26;5.80;;;3.15;;
44000;SDS011;29660;42.892;24.710;2023-08-17T14:49:48;10.63;;;3.30;;
44000;SDS011;29660;42.892;24.710;2023-08-17T14:55:11;3.67;;;2.90;;
44000;SDS011;29660;42.892;24.710;2023-08-17T15:00:35;4.53;;;2.80;;
44000;SDS011;29660;42.892;24.710;2023-08-17T15:05:57;8.75;;;3.22;;
44000;SDS011;29660;42.892;24.710;2023-08-17T15:11:19;7.25;;;2.85;;
44000;SDS011;29660;42.892;24.710;2023-08-17T15:16:41;4.10;;;2.60;;
44000;SDS011;29660;42.892;24.710;2023-08-17T15:22:04;4.18;;;2.45;;
44000;SDS011;29660;42.892;24.710;2023-08-17T15:27:26;9.57;;;2.50;;
44000;SDS011;29660;42.892;24.710;2023-08-17T15:32:49;4.35;;;2.60;;
44000;SDS011;29660;42.892;24.710;2023-08-17T15:38:11;4.25;;;2.75;;
44000;SDS011;29660;42.892;24.710;2023-08-17T15:43:33;8.07;;;2.90;;
44000;SDS011;29660;42.892;24.710;2023-08-17T15:48:56;4.95;;;3.20;;
44000;SDS011;29660;42.892;24.710;2023-08-17T15:54:18;3.90;;;2.75;;
44000;SDS011;29660;42.892;24.710;2023-08-17T15:59:54;6.63;;;2.92;;
44000;SDS011;29660;42.892;24.710;2023-08-17T16:05:16;3.03;;;2.72;;
44000;SDS011;29660;42.892;24.710;2023-08-17T16:10:39;5.28;;;2.90;;
44000;SDS011;29660;42.892;24.710;2023-08-17T16:16:01;7.78;;;3.13;;
44000;SDS011;29660;42.892;24.710;2023-08-17T16:21:23;9.52;;;3.58;;
44000;SDS011;29660;42.892;24.710;2023-08-17T16:26:45;5.60;;;2.80;;
44000;SDS011;29660;42.892;24.710;2023-08-17T16:32:07;4.72;;;3.33;;
44000;SDS011;29660;42.892;24.710;2023-08-17T16:37:30;7.10;;;3.85;;
44000;SDS011;29660;42.892;24.710;2023-08-17T16:42:52;6.63;;;3.30;;
44000;SDS011;29660;42.892;24.710;2023-08-17T16:48:21;6.68;;;3.53;;
44000;SDS011;29660;42.892;24.710;2023-08-17T16:53:45;8.00;;;3.95;;
44000;SDS011;29660;42.892;24.710;2023-08-17T16:59:11;9.95;;;5.40;;
44000;SDS011;29660;42.892;24.710;2023-08-17T17:04:35;11.27;;;4.63;;
44000;SDS011;29660;42.892;24.710;2023-08-17T17:09:57;7.20;;;4.28;;
44000;SDS011;29660;42.892;24.710;2023-08-17T17:15:20;9.55;;;5.20;;
44000;SDS011;29660;42.892;24.710;2023-08-17T17:20:42;9.20;;;6.70;;
44000;SDS011;29660;42.892;24.710;2023-08-17T17:26:04;5.50;;;4.90;;
44000;SDS011;29660;42.892;24.710;2023-08-17T17:31:29;11.07;;;6.00;;
44000;SDS011;29660;42.892;24.710;2023-08-17T17:36:51;7.43;;;4.20;;
44000;SDS011;29660;42.892;24.710;2023-08-17T17:42:14;8.85;;;5.57;;
44000;SDS011;29660;42.892;24.710;2023-08-17T17:47:36;11.50;;;6.18;;
44000;SDS011;29660;42.892;24.710;2023-08-17T17:52:58;9.48;;;5.57;;
44000;SDS011;29660;42.892;24.710;2023-08-17T17:58:20;14.00;;;6.10;;
44000;SDS011;29660;42.892;24.710;2023-08-17T18:03:42;11.07;;;6.35;;
44000;SDS011;29660;42.892;24.710;2023-08-17T18:09:05;10.13;;;6.30;;
44000;SDS011;29660;42.892;24.710;2023-08-17T18:14:27;20.60;;;13.35;;
44000;SDS011;29660;42.892;24.710;2023-08-17T18:19:49;7.82;;;5.60;;
44000;SDS011;29660;42.892;24.710;2023-08-17T18:25:11;15.07;;;7.35;;
44000;SDS011;29660;42.892;24.710;2023-08-17T18:30:34;9.77;;;5.78;;
44000;SDS011;29660;42.892;24.710;2023-08-17T18:35:56;7.32;;;5.22;;
44000;SDS011;29660;42.892;24.710;2023-08-17T18:41:19;10.05;;;5.20;;
44000;SDS011;29660;42.892;24.710;2023-08-17T18:46:41;8.48;;;4.63;;
44000;SDS011;29660;42.892;24.710;2023-08-17T18:52:03;9.07;;;4.70;;
44000;SDS011;29660;42.892;24.710;2023-08-17T18:57:26;9.25;;;5.22;;
44000;SDS011;29660;42.892;24.710;2023-08-17T19:02:48;8.27;;;5.20;;
44000;SDS011;29660;42.892;24.710;2023-08-17T19:08:11;6.63;;;4.97;;
44000;SDS011;29660;42.892;24.710;2023-08-17T19:13:33;6.65;;;5.43;;
44000;SDS011;29660;42.892;24.710;2023-08-17T19:18:56;8.52;;;5.45;;
44000;SDS011;29660;42.892;24.710;2023-08-17T19:24:18;7.43;;;5.60;;
44000;SDS011;29660;42.892;24.710;2023-08-17T19:29:40;7.55;;;5.68;;
44000;SDS011;29660;42.892;24.710;2023-08-17T19:35:03;8.55;;;5.70;;
44000;SDS011;29660;42.892;24.710;2023-08-17T19:40:25;6.93;;;4.97;;
44000;SDS011;29660;42.892;24.710;2023-08-17T19:45:49;7.65;;;5.63;;
44000;SDS011;29660;42.892;24.710;2023-08-17T19:51:11;6.00;;;4.90;;
44000;SDS011;29660;42.892;24.710;2023-08-17T19:56:33;6.05;;;5.30;;
44000;SDS011;29660;42.892;24.710;2023-08-17T20:01:55;9.55;;;5.32;;
44000;SDS011;29660;42.892;24.710;2023-08-17T20:07:18;9.00;;;5.13;;
44000;SDS011;29660;42.892;24.710;2023-08-17T20:12:40;6.45;;;5.18;;
44000;SDS011;29660;42.892;24.710;2023-08-17T20:18:02;8.38;;;5.60;;
44000;SDS011;29660;42.892;24.710;2023-08-17T20:23:25;8.10;;;5.30;;
44000;SDS011;29660;42.892;24.710;2023-08-17T20:28:47;8.50;;;5.60;;
44000;SDS011;29660;42.892;24.710;2023-08-17T20:34:09;10.23;;;6.75;;
44000;SDS011;29660;42.892;24.710;2023-08-17T20:39:33;9.68;;;6.20;;
44000;SDS011;29660;42.892;24.710;2023-08-17T20:44:57;7.72;;;5.20;;
44000;SDS011;29660;42.892;24.710;2023-08-17T20:50:19;8.18;;;5.50;;
44000;SDS011;29660;42.892;24.710;2023-08-17T20:55:41;6.28;;;5.68;;
44000;SDS011;29660;42.892;24.710;2023-08-17T21:01:04;8.90;;;5.30;;
44000;SDS011;29660;42.892;24.710;2023-08-17T21:06:26;8.00;;;5.63;;
44000;SDS011;29660;42.892;24.710;2023-08-17T21:11:48;8.25;;;5.70;;
44000;SDS011;29660;42.892;24.710;2023-08-17T21:17:10;6.13;;;5.53;;
44000;SDS011;29660;42.892;24.710;2023-08-17T21:22:32;6.40;;;5.80;;
44000;SDS011;29660;42.892;24.710;2023-08-17T21:27:55;6.72;;;5.70;;
44000;SDS011;29660;42.892;24.710;2023-08-17T21:33:17;7.18;;;6.28;;
44000;SDS011;29660;42.892;24.710;2023-08-17T21:38:39;7.75;;;6.20;;
44000;SDS011;29660;42.892;24.710;2023-08-17T21:44:01;8.60;;;5.60;;
44000;SDS011;29660;42.892;24.710;2023-08-17T21:49:24;8.90;;;5.80;;
44000;SDS011;29660;42.892;24.710;2023-08-17T21:54:48;11.07;;;5.80;;
44000;SDS011;29660;42.892;24.710;2023-08-17T22:00:11;6.30;;;5.43;;
44000;SDS011;29660;42.892;24.710;2023-08-17T22:05:33;7.70;;;5.93;;
44000;SDS011;29660;42.892;24.710;2023-08-17T22:10:56;9.75;;;6.15;;
44000;SDS011;29660;42.892;24.710;2023-08-17T22:16:18;10.52;;;5.97;;
44000;SDS011;29660;42.892;24.710;2023-08-17T22:21:40;6.78;;;6.07;;
44000;SDS011;29660;42.892;24.710;2023-08-17T22:27:04;7.95;;;6.38;;
44000;SDS011;29660;42.892;24.710;2023-08-17T22:32:26;8.93;;;6.03;;
44000;SDS011;29660;42.892;24.710;2023-08-17T22:37:48;7.63;;;6.57;;
44000;SDS011;29660;42.892;24.710;2023-08-17T22:43:11;9.23;;;6.80;;
44000;SDS011;29660;42.892;24.710;2023-08-17T22:48:33;7.53;;;6.68;;
44000;SDS011;29660;42.892;24.710;2023-08-17T22:53:55;7.25;;;6.55;;
44000;SDS011;29660;42.892;24.710;2023-08-17T22:59:18;6.88;;;5.95;;
44000;SDS011;29660;42.892;24.710;2023-08-17T23:04:40;8.60;;;6.50;;
44000;SDS011;29660;42.892;24.710;2023-08-17T23:10:03;7.25;;;6.53;;
44000;SDS011;29660;42.892;24.710;2023-08-17T23:15:26;13.70;;;6.75;;
44000;SDS011;29660;42.892;24.710;2023-08-17T23:20:49;11.77;;;6.55;;
44000;SDS011;29660;42.892;24.710;2023-08-17T23:26:11;9.35;;;6.43;;
44000;SDS011;29660;42.892;24.710;2023-08-17T23:31:33;8.25;;;6.80;;
44000;SDS011;29660;42.892;24.710;2023-08-17T23:36:56;9.18;;;6.55;;
44000;SDS011;29660;42.892;24.710;2023-08-17T23:42:18;8.07;;;6.78;;
44000;SDS011;29660;42.892;24.710;2023-08-17T23:47:40;8.32;;;6.30;;
44000;SDS011;29660;42.892;24.710;2023-08-17T23:53:02;13.43;;;7.20;;
44000;SDS011;29660;42.892;24.710;2023-08-17T23:58:25;9.02;;;6.93;;
